Time;durP1;ratioP1;P1;durP2;ratioP2;P2;SDS_P1;SDS_P2;PMS_P1;PMS_P2;Temp;Humidity;BMP_temperature;BMP_pressure;BME280_temperature;BME280_humidity;BME280_pressure;Samples;Min_cycle;Max_cycle;Signal;HPM_P1;HPM_P2
2023/11/23 00:00:09;;;;;;;30.08;12.10;;;;;;;5.07;100.00;102181.78;5047228;28;20116;-65
2023/11/23 00:02:35;;;;;;;30.02;12.88;;;;;;;5.10;100.00;102185.91;5048725;28;20159;-65
2023/11/23 00:05:00;;;;;;;29.85;12.13;;;;;;;5.15;100.00;102180.53;5043745;28;20032;-65
2023/11/23 00:07:26;;;;;;;26.13;12.02;;;;;;;5.20;100.00;102181.94;5044140;28;20044;-65
2023/11/23 00:09:51;;;;;;;26.02;11.65;;;;;;;5.23;100.00;102179.16;5042165;28;20503;-65
2023/11/23 00:12:18;;;;;;;29.48;11.48;;;;;;;5.21;100.00;102180.19;5041813;28;20053;-64
2023/11/23 00:14:44;;;;;;;31.65;12.07;;;;;;;5.14;100.00;102186.56;5045116;28;20764;-65
2023/11/23 00:17:09;;;;;;;33.70;13.82;;;;;;;5.18;100.00;102182.91;5043286;28;20049;-65
2023/11/23 00:19:35;;;;;;;30.70;14.02;;;;;;;5.25;100.00;102185.06;5026400;28;20033;-65
2023/11/23 00:22:01;;;;;;;29.92;12.98;;;;;;;5.17;100.00;102183.84;5043918;28;20033;-65
2023/11/23 00:24:26;;;;;;;30.35;11.45;;;;;;;5.13;100.00;102179.78;5043204;28;20395;-65
2023/11/23 00:26:53;;;;;;;33.28;13.45;;;;;;;5.12;100.00;102181.50;5044893;28;20029;-65
2023/11/23 00:29:20;;;;;;;32.50;12.95;;;;;;;5.14;100.00;102184.84;5040056;28;20267;-64
2023/11/23 00:31:46;;;;;;;34.97;13.60;;;;;;;5.21;100.00;102178.41;5042572;28;20060;-65
2023/11/23 00:34:11;;;;;;;34.72;13.38;;;;;;;5.27;100.00;102179.81;5043375;28;21176;-65
2023/11/23 00:36:39;;;;;;;29.83;12.50;;;;;;;5.25;100.00;102174.78;5044156;28;20491;-64
2023/11/23 00:39:08;;;;;;;28.52;12.38;;;;;;;5.26;100.00;102163.56;5024985;28;20514;-66
2023/11/23 00:41:35;;;;;;;30.10;12.32;;;;;;;5.25;100.00;102172.22;5040358;28;20065;-65
2023/11/23 00:44:02;;;;;;;32.83;13.57;;;;;;;5.24;100.00;102173.13;5058232;28;20029;-65
2023/11/23 00:46:28;;;;;;;33.67;14.43;;;;;;;5.29;100.00;102164.31;5042141;28;20037;-65
2023/11/23 00:48:54;;;;;;;31.90;13.27;;;;;;;5.19;100.00;102161.44;5042516;28;20051;-65
2023/11/23 00:51:21;;;;;;;36.22;14.15;;;;;;;5.18;100.00;102165.75;5050677;28;20060;-65
2023/11/23 00:53:47;;;;;;;31.70;12.63;;;;;;;5.28;100.00;102158.34;5043701;28;20067;-65
2023/11/23 00:56:12;;;;;;;37.47;13.82;;;;;;;5.28;100.00;102155.75;5043082;28;20052;-65
2023/11/23 00:58:38;;;;;;;30.67;13.40;;;;;;;5.22;100.00;102148.41;5044472;28;20025;-65
2023/11/23 01:01:03;;;;;;;30.25;12.77;;;;;;;5.22;100.00;102156.13;5037159;28;20060;-65
2023/11/23 01:03:32;;;;;;;28.10;12.55;;;;;;;5.28;100.00;102142.09;5044054;28;20037;-65
2023/11/23 01:05:57;;;;;;;32.70;13.65;;;;;;;5.30;100.00;102153.13;5043559;28;20041;-65
2023/11/23 01:08:23;;;;;;;32.25;13.73;;;;;;;5.43;100.00;102148.91;5047645;28;20020;-65
2023/11/23 01:10:48;;;;;;;36.97;14.52;;;;;;;5.37;100.00;102136.38;5025023;28;20041;-65
2023/11/23 01:13:14;;;;;;;28.52;12.20;;;;;;;5.51;100.00;102141.56;5044237;28;20127;-65
2023/11/23 01:15:39;;;;;;;37.08;14.55;;;;;;;5.46;100.00;102143.56;5040547;28;20037;-65
2023/11/23 01:18:05;;;;;;;32.75;13.20;;;;;;;5.40;100.00;102131.88;5041067;28;20044;-65
2023/11/23 01:20:30;;;;;;;36.22;15.63;;;;;;;5.47;100.00;102129.78;5037513;28;20446;-64
2023/11/23 01:22:56;;;;;;;37.55;15.35;;;;;;;5.47;100.00;102134.94;5025142;28;20033;-65
2023/11/23 01:25:21;;;;;;;34.50;15.05;;;;;;;5.37;100.00;102137.22;5024789;28;20048;-64
2023/11/23 01:27:47;;;;;;;36.88;14.90;;;;;;;5.50;100.00;102147.63;5035617;28;20534;-65
2023/11/23 01:30:12;;;;;;;39.75;16.05;;;;;;;5.52;100.00;102139.81;5038193;28;20049;-65
2023/11/23 01:32:38;;;;;;;39.72;17.20;;;;;;;5.53;100.00;102146.63;5053903;28;20036;-65
2023/11/23 01:35:04;;;;;;;37.55;15.25;;;;;;;5.47;100.00;102147.81;5053299;28;20090;-66
2023/11/23 01:37:30;;;;;;;37.35;16.05;;;;;;;5.40;100.00;102131.88;5040061;28;20037;-65
2023/11/23 01:39:55;;;;;;;37.63;16.15;;;;;;;5.49;100.00;102142.56;5040398;28;20584;-65
2023/11/23 01:42:21;;;;;;;35.22;15.90;;;;;;;5.49;100.00;102142.56;5071657;28;20036;-65
2023/11/23 01:44:47;;;;;;;31.63;14.88;;;;;;;5.59;100.00;102149.66;5040134;28;20565;-65
2023/11/23 01:47:13;;;;;;;35.80;16.45;;;;;;;5.63;100.00;102143.44;5043286;28;20041;-65
2023/11/23 01:49:43;;;;;;;37.58;16.35;;;;;;;5.60;100.00;102135.88;5044650;28;20067;-64
2023/11/23 01:52:10;;;;;;;42.28;17.33;;;;;;;5.67;100.00;102126.06;5042052;28;20053;-64
2023/11/23 01:54:36;;;;;;;39.85;16.13;;;;;;;5.72;100.00;102130.91;5043977;28;20033;-65
2023/11/23 01:57:03;;;;;;;43.75;18.88;;;;;;;5.61;100.00;102140.13;5044858;28;20051;-65
2023/11/23 01:59:30;;;;;;;38.15;17.15;;;;;;;5.62;100.00;102135.78;5057486;28;20041;-65
2023/11/23 02:01:56;;;;;;;41.33;17.30;;;;;;;5.69;100.00;102136.22;5023042;28;20037;-66
2023/11/23 02:04:22;;;;;;;39.20;17.48;;;;;;;5.63;100.00;102135.69;5024230;28;20041;-66
2023/11/23 02:06:50;;;;;;;39.17;18.33;;;;;;;5.58;100.00;102147.19;5043550;28;20391;-65
2023/11/23 02:09:17;;;;;;;37.38;17.52;;;;;;;5.64;100.00;102134.75;5043713;28;20060;-65
2023/11/23 02:11:43;;;;;;;40.63;19.27;;;;;;;5.73;100.00;102133.41;5042585;28;20040;-65
2023/11/23 02:14:08;;;;;;;44.13;18.25;;;;;;;5.62;100.00;102130.63;5042679;28;20036;-65
2023/11/23 02:16:34;;;;;;;38.65;18.15;;;;;;;5.65;100.00;102133.00;5042483;28;20103;-65
2023/11/23 02:18:59;;;;;;;40.88;18.05;;;;;;;5.74;100.00;102121.34;5043206;28;20032;-65
2023/11/23 02:21:25;;;;;;;42.78;19.20;;;;;;;5.72;100.00;102136.06;5026139;28;20122;-65
2023/11/23 02:23:50;;;;;;;40.42;17.20;;;;;;;5.72;100.00;102131.72;5042123;28;20033;-64
2023/11/23 02:26:16;;;;;;;45.45;17.92;;;;;;;5.71;100.00;102126.66;5038825;28;20040;-65
2023/11/23 02:28:42;;;;;;;37.75;17.50;;;;;;;5.84;100.00;102125.03;5038433;28;20106;-65
2023/11/23 02:31:07;;;;;;;41.03;17.98;;;;;;;5.85;100.00;102131.84;5041427;28;20029;-64
2023/11/23 02:33:33;;;;;;;40.28;17.70;;;;;;;5.86;100.00;102130.91;5042288;28;20041;-65
2023/11/23 02:35:58;;;;;;;38.10;17.05;;;;;;;5.85;100.00;102124.94;5023239;28;20415;-65
2023/11/23 02:38:24;;;;;;;41.15;17.02;;;;;;;5.96;100.00;102124.31;5043193;28;20060;-65
2023/11/23 02:40:50;;;;;;;36.55;16.08;;;;;;;5.88;100.00;102131.66;5041562;28;20510;-65
2023/11/23 02:43:16;;;;;;;37.05;16.90;;;;;;;5.94;100.00;102123.56;5038213;28;20479;-65
2023/11/23 02:45:42;;;;;;;39.80;15.07;;;;;;;5.83;100.00;102124.19;5039685;28;20049;-65
2023/11/23 02:48:08;;;;;;;41.72;17.05;;;;;;;5.80;100.00;102116.69;5041596;28;20040;-64
2023/11/23 02:50:34;;;;;;;38.85;15.95;;;;;;;5.97;100.00;102119.97;5044926;28;20037;-65
2023/11/23 02:53:01;;;;;;;35.33;15.05;;;;;;;6.00;100.00;102120.63;5020818;28;20045;-64
2023/11/23 02:55:27;;;;;;;34.25;16.35;;;;;;;6.07;100.00;102115.94;5033442;28;20124;-64
2023/11/23 02:57:52;;;;;;;36.88;15.50;;;;;;;5.98;100.00;102111.34;5072715;28;20039;-65
2023/11/23 03:00:18;;;;;;;34.30;14.77;;;;;;;6.14;100.00;102108.66;5070656;28;20515;-65
2023/11/23 03:02:43;;;;;;;33.53;16.00;;;;;;;6.06;100.00;102110.88;5041291;28;20033;-65
2023/11/23 03:05:10;;;;;;;34.20;16.35;;;;;;;6.11;100.00;102103.69;5040039;28;20037;-65
2023/11/23 03:07:36;;;;;;;40.65;16.50;;;;;;;6.09;100.00;102105.56;5042370;28;20028;-65
2023/11/23 03:10:02;;;;;;;37.53;16.38;;;;;;;6.17;100.00;102098.16;5040382;28;20041;-64
2023/11/23 03:12:28;;;;;;;36.25;16.70;;;;;;;6.25;100.00;102101.06;5040697;28;20499;-65
2023/11/23 03:14:55;;;;;;;35.65;14.75;;;;;;;6.14;100.00;102091.47;5039634;28;20102;-65
2023/11/23 03:17:21;;;;;;;35.78;16.15;;;;;;;6.24;100.00;102087.38;5041011;28;20041;-65
2023/11/23 03:19:47;;;;;;;36.83;15.93;;;;;;;6.18;100.00;102090.34;5042444;28;20536;-65
2023/11/23 03:22:12;;;;;;;37.28;16.92;;;;;;;6.25;100.00;102090.78;5040207;28;20044;-65
2023/11/23 03:24:38;;;;;;;37.58;15.25;;;;;;;6.20;100.00;102091.06;5040675;28;20061;-65
2023/11/23 03:27:04;;;;;;;34.33;16.67;;;;;;;6.14;100.00;102086.31;5042042;28;20053;-65
2023/11/23 03:29:29;;;;;;;36.20;15.27;;;;;;;6.23;100.00;102088.31;5040793;28;20033;-65
2023/11/23 03:31:55;;;;;;;32.80;15.18;;;;;;;6.20;100.00;102095.41;5042927;28;20036;-65
2023/11/23 03:34:20;;;;;;;33.28;14.98;;;;;;;6.35;100.00;102085.91;5040877;28;20046;-65
2023/11/23 03:36:46;;;;;;;33.30;15.93;;;;;;;6.32;100.00;102086.06;5042604;28;20040;-65
2023/11/23 03:39:12;;;;;;;33.13;14.98;;;;;;;6.36;100.00;102088.34;5043522;28;20040;-65
2023/11/23 03:41:37;;;;;;;37.40;16.25;;;;;;;6.32;100.00;102092.03;5039232;28;20111;-65
2023/11/23 03:44:04;;;;;;;39.42;16.83;;;;;;;6.34;100.00;102087.63;5040294;28;20131;-65
2023/11/23 03:46:29;;;;;;;53.28;23.20;;;;;;;6.30;100.00;102081.00;5043803;28;20058;-65
2023/11/23 03:48:56;;;;;;;38.58;17.88;;;;;;;6.47;100.00;102084.28;5041787;28;20041;-64
2023/11/23 03:51:23;;;;;;;37.50;18.42;;;;;;;6.45;100.00;102076.66;5040764;28;20032;-65
2023/11/23 03:53:49;;;;;;;34.42;17.13;;;;;;;6.51;100.00;102071.09;5041833;28;20504;-65
2023/11/23 03:56:18;;;;;;;38.17;16.60;;;;;;;6.42;100.00;102071.66;5041039;28;20071;-64
2023/11/23 03:58:44;;;;;;;36.97;16.25;;;;;;;6.47;100.00;102071.41;5042832;28;20036;-65
2023/11/23 04:01:10;;;;;;;44.97;17.38;;;;;;;6.52;100.00;102071.94;5042061;28;20133;-65
2023/11/23 04:03:35;;;;;;;36.45;16.92;;;;;;;6.52;100.00;102065.03;5041209;28;20036;-64
2023/11/23 04:06:02;;;;;;;42.40;18.85;;;;;;;6.50;100.00;102056.56;5043087;28;20080;-65
2023/11/23 04:08:27;;;;;;;45.63;18.70;;;;;;;6.56;100.00;102055.34;5053763;28;20048;-65
2023/11/23 04:10:53;;;;;;;47.80;20.63;;;;;;;6.56;100.00;102057.94;5053799;28;20060;-64
2023/11/23 04:13:18;;;;;;;51.80;20.23;;;;;;;6.56;100.00;102057.94;5055095;28;20044;-65
2023/11/23 04:15:45;;;;;;;64.38;25.85;;;;;;;6.55;100.00;102057.06;5053279;28;20036;-65
2023/11/23 04:18:11;;;;;;;39.67;19.70;;;;;;;6.57;100.00;102054.41;5052741;28;20040;-65
2023/11/23 04:20:36;;;;;;;44.67;20.10;;;;;;;6.58;100.00;102053.50;5081912;28;20123;-64
2023/11/23 04:23:02;;;;;;;56.10;23.80;;;;;;;6.63;100.00;102065.16;5052056;28;20037;-65
2023/11/23 04:25:27;;;;;;;53.55;21.85;;;;;;;6.61;100.00;102069.59;5032872;28;20032;-65
2023/11/23 04:27:54;;;;;;;53.00;23.33;;;;;;;6.69;100.00;102063.94;5050462;28;20029;-64
2023/11/23 04:30:20;;;;;;;50.63;20.30;;;;;;;6.67;100.00;102063.22;5046366;28;20039;-65
2023/11/23 04:32:46;;;;;;;48.08;23.60;;;;;;;6.73;100.00;102057.66;5046611;28;20535;-64
2023/11/23 04:35:11;;;;;;;44.00;20.08;;;;;;;6.75;100.00;102052.41;5044196;28;20070;-65
2023/11/23 04:37:37;;;;;;;52.42;22.05;;;;;;;6.71;100.00;102061.25;5045017;28;20546;-64
2023/11/23 04:40:06;;;;;;;41.20;18.35;;;;;;;6.63;100.00;102051.44;5044955;28;20087;-65
2023/11/23 04:42:32;;;;;;;48.22;21.48;;;;;;;6.71;100.00;102050.94;5042454;28;20037;-65
2023/11/23 04:44:58;;;;;;;52.83;22.92;;;;;;;6.79;100.00;102043.53;5043193;28;20091;-64
2023/11/23 04:47:23;;;;;;;53.75;23.58;;;;;;;6.74;100.00;102043.00;5045974;28;20040;-65
2023/11/23 04:49:49;;;;;;;46.70;21.27;;;;;;;6.73;100.00;102042.19;5042023;28;20042;-65
2023/11/23 04:52:15;;;;;;;52.22;24.90;;;;;;;6.86;100.00;102041.38;5044247;28;20053;-65
2023/11/23 04:54:40;;;;;;;45.90;21.30;;;;;;;6.83;100.00;102050.13;5028740;28;20049;-65
2023/11/23 04:57:06;;;;;;;55.00;22.33;;;;;;;6.83;100.00;102038.06;5045324;28;20491;-65
2023/11/23 04:59:31;;;;;;;40.28;18.73;;;;;;;6.83;100.00;102056.09;5046741;28;20041;-65
2023/11/23 05:01:57;;;;;;;39.72;19.02;;;;;;;6.84;100.00;102056.94;5044569;28;20032;-65
2023/11/23 05:04:22;;;;;;;42.30;20.55;;;;;;;6.72;100.00;102047.44;5042966;28;20044;-65
2023/11/23 05:06:48;;;;;;;44.58;18.45;;;;;;;6.92;100.00;102049.53;5044341;28;20040;-65
2023/11/23 05:09:13;;;;;;;40.92;19.60;;;;;;;6.91;100.00;102050.47;5045760;28;20041;-65
2023/11/23 05:11:39;;;;;;;43.25;20.65;;;;;;;7.04;100.00;102050.47;5044626;28;20040;-65
2023/11/23 05:14:06;;;;;;;42.78;20.20;;;;;;;6.95;100.00;102048.50;5044133;28;20053;-65
2023/11/23 05:16:32;;;;;;;53.90;20.63;;;;;;;7.01;100.00;102041.19;5045968;28;20091;-65
2023/11/23 05:18:57;;;;;;;43.70;20.20;;;;;;;6.93;100.00;102045.19;5042903;28;20037;-65
2023/11/23 05:21:23;;;;;;;45.58;20.25;;;;;;;7.11;100.00;102032.84;5043865;28;20033;-65
2023/11/23 05:23:48;;;;;;;50.05;20.30;;;;;;;7.00;100.00;102031.78;5039292;28;20041;-65
2023/11/23 05:26:14;;;;;;;39.03;18.27;;;;;;;6.99;100.00;102025.00;5046279;28;20029;-65
2023/11/23 05:28:39;;;;;;;45.90;18.95;;;;;;;7.00;100.00;102036.13;5042524;28;20491;-65
2023/11/23 05:31:05;;;;;;;50.42;20.73;;;;;;;6.93;100.00;102029.72;5041606;28;20037;-65
2023/11/23 05:33:30;;;;;;;45.50;20.70;;;;;;;7.05;100.00;102038.41;5045198;28;20029;-65
2023/11/23 05:35:56;;;;;;;45.15;20.52;;;;;;;7.02;100.00;102034.25;5042264;28;20399;-64
2023/11/23 05:38:22;;;;;;;45.08;20.00;;;;;;;7.00;100.00;102036.13;5043246;28;20036;-65
2023/11/23 05:40:48;;;;;;;48.40;21.20;;;;;;;6.98;100.00;102037.97;5038344;28;20041;-65
2023/11/23 05:43:15;;;;;;;46.63;20.23;;;;;;;6.90;100.00;102038.50;5044343;28;20032;-65
2023/11/23 05:45:40;;;;;;;46.88;20.77;;;;;;;7.09;100.00;102038.09;5038826;28;20613;-64
2023/11/23 05:48:05;;;;;;;39.38;19.70;;;;;;;7.06;100.00;102032.31;5071866;28;20057;-65
2023/11/23 05:50:31;;;;;;;51.35;19.77;;;;;;;7.02;100.00;102027.34;5041739;28;20053;-64
2023/11/23 05:52:57;;;;;;;44.92;21.13;;;;;;;7.18;100.00;102034.91;5044159;28;20067;-65
2023/11/23 05:55:22;;;;;;;48.00;22.02;;;;;;;7.28;100.00;102040.25;5039402;28;20530;-65
2023/11/23 05:57:48;;;;;;;43.45;19.95;;;;;;;7.17;100.00;102048.72;5043376;28;20048;-64
2023/11/23 06:00:14;;;;;;;45.80;20.25;;;;;;;7.15;100.00;102047.16;5040317;28;20033;-65
2023/11/23 06:02:41;;;;;;;47.92;21.90;;;;;;;7.14;100.00;102055.81;5027946;28;20029;-65
2023/11/23 06:05:06;;;;;;;49.17;22.30;;;;;;;7.19;100.00;102044.25;5027729;28;20048;-65
2023/11/23 06:07:32;;;;;;;43.50;19.85;;;;;;;7.22;100.00;102038.91;5042401;28;20071;-65
2023/11/23 06:10:00;;;;;;;41.72;20.33;;;;;;;7.21;100.00;102032.13;5034816;28;20049;-65
2023/11/23 06:12:26;;;;;;;51.75;21.33;;;;;;;7.29;100.00;102026.44;5022823;28;20045;-65
2023/11/23 06:14:52;;;;;;;43.22;20.25;;;;;;;7.20;100.00;102022.72;5030343;28;20037;-65
2023/11/23 06:17:17;;;;;;;47.28;21.48;;;;;;;7.24;100.00;102038.00;5043276;28;20028;-65
2023/11/23 06:19:43;;;;;;;47.58;21.02;;;;;;;7.33;100.00;102027.06;5040402;28;20380;-65
2023/11/23 06:22:08;;;;;;;48.53;21.08;;;;;;;7.45;100.00;102027.97;5042975;28;20084;-65
2023/11/23 06:24:34;;;;;;;43.67;20.52;;;;;;;7.33;100.00;102022.72;5042825;28;20051;-65
2023/11/23 06:27:00;;;;;;;41.58;21.23;;;;;;;7.38;100.00;102032.69;5041505;28;20410;-66
2023/11/23 06:29:25;;;;;;;42.35;18.95;;;;;;;7.27;100.00;102033.44;5040510;28;20048;-65
2023/11/23 06:31:51;;;;;;;40.70;19.48;;;;;;;7.45;100.00;102033.13;5041979;28;20025;-65
2023/11/23 06:34:16;;;;;;;50.92;20.70;;;;;;;7.41;100.00;102030.75;5041718;28;20996;-65
2023/11/23 06:36:42;;;;;;;43.90;19.27;;;;;;;7.44;100.00;102028.88;5018871;28;20037;-65
2023/11/23 06:39:09;;;;;;;40.28;20.05;;;;;;;7.38;100.00;102032.69;5022779;28;20181;-65
2023/11/23 06:41:35;;;;;;;39.15;19.65;;;;;;;7.36;100.00;102037.16;5072342;28;20040;-65
2023/11/23 06:44:00;;;;;;;50.40;19.83;;;;;;;7.41;100.00;102037.66;5038904;28;20140;-65
2023/11/23 06:46:26;;;;;;;40.10;18.50;;;;;;;7.35;100.00;102025.19;5043013;28;20041;-65
2023/11/23 06:48:51;;;;;;;58.70;27.02;;;;;;;7.55;100.00;102026.38;5042249;28;20032;-65
2023/11/23 06:51:17;;;;;;;59.65;25.40;;;;;;;7.53;100.00;102013.56;5040837;28;20052;-65
2023/11/23 06:53:44;;;;;;;42.80;19.50;;;;;;;7.48;100.00;102015.66;5039842;28;20107;-65
2023/11/23 06:56:12;;;;;;;60.92;29.08;;;;;;;7.50;100.00;102008.66;5040610;28;20052;-65
2023/11/23 06:58:48;;;;;;;54.42;24.88;;;;;;;7.53;100.00;102003.25;5041293;28;20163;-65
2023/11/23 07:01:14;;;;;;;55.33;25.35;;;;;;;7.50;100.00;102010.41;5040680;28;20029;-65
2023/11/23 07:03:41;;;;;;;48.42;21.88;;;;;;;7.53;100.00;102005.00;5038873;28;20111;-65
2023/11/23 07:06:07;;;;;;;47.17;20.23;;;;;;;7.55;100.00;102006.56;5041817;28;20029;-65
2023/11/23 07:08:36;;;;;;;38.03;18.23;;;;;;;7.66;100.00;101995.47;5041002;28;20548;-65
2023/11/23 07:11:04;;;;;;;42.22;19.95;;;;;;;7.62;100.00;101991.47;5038455;28;20738;-65
2023/11/23 07:13:33;;;;;;;51.03;24.85;;;;;;;7.55;100.00;101988.50;5054564;28;20403;-65
2023/11/23 07:15:59;;;;;;;43.88;19.02;;;;;;;7.59;100.00;101989.94;5054431;28;20064;-65
2023/11/23 07:18:26;;;;;;;43.75;19.88;;;;;;;7.65;100.00;101996.44;5043014;28;20060;-65
2023/11/23 07:20:58;;;;;;;40.70;18.83;;;;;;;7.72;100.00;101989.91;5056950;28;20488;-65
2023/11/23 07:23:23;;;;;;;36.67;18.15;;;;;;;7.81;100.00;101998.75;5042315;28;20037;-65
2023/11/23 07:25:49;;;;;;;37.80;18.42;;;;;;;7.78;100.00;101992.03;5040341;28;20047;-65
2023/11/23 07:28:15;;;;;;;38.90;18.75;;;;;;;7.75;100.00;101992.25;5039047;28;20083;-65
2023/11/23 07:30:44;;;;;;;32.17;17.02;;;;;;;7.87;100.00;101979.41;5042265;28;20040;-65
2023/11/23 07:33:10;;;;;;;44.20;18.50;;;;;;;7.85;100.00;101982.09;5042879;28;20052;-66
2023/11/23 07:35:38;;;;;;;36.75;19.52;;;;;;;7.78;100.00;101989.47;5039938;28;20064;-65
2023/11/23 07:38:04;;;;;;;40.00;18.98;;;;;;;7.76;100.00;101987.91;5056557;28;20095;-65
2023/11/23 07:40:31;;;;;;;39.65;19.02;;;;;;;7.76;100.00;101978.41;5037141;28;20026;-65
2023/11/23 07:42:57;;;;;;;33.55;17.13;;;;;;;7.95;100.00;101987.44;5042790;28;20067;-65
2023/11/23 07:45:23;;;;;;;48.15;19.35;;;;;;;7.78;100.00;101980.91;5039003;28;20048;-65
2023/11/23 07:47:48;;;;;;;38.95;19.80;;;;;;;7.91;100.00;101975.66;5041688;28;20052;-65
2023/11/23 07:50:16;;;;;;;36.88;19.23;;;;;;;7.92;100.00;101978.13;5040220;28;20112;-65
2023/11/23 07:52:46;;;;;;;35.65;17.20;;;;;;;8.02;100.00;101982.66;5042099;28;20033;-65
2023/11/23 07:55:15;;;;;;;41.30;21.45;;;;;;;7.94;100.00;101981.44;5038521;28;20043;-65
2023/11/23 07:57:47;;;;;;;35.80;18.15;;;;;;;8.03;100.00;101977.38;5047807;28;20048;-65
2023/11/23 08:00:13;;;;;;;36.13;18.67;;;;;;;8.03;100.00;101964.47;5042664;28;20033;-65
2023/11/23 08:02:39;;;;;;;38.63;20.35;;;;;;;8.08;100.00;101964.13;5042636;28;20040;-65
2023/11/23 08:05:05;;;;;;;39.85;18.65;;;;;;;8.03;100.00;101977.38;5044699;28;20040;-66
2023/11/23 08:07:31;;;;;;;40.38;17.90;;;;;;;8.22;100.00;101970.88;5026763;28;20345;-65
2023/11/23 08:09:58;;;;;;;37.47;18.52;;;;;;;8.14;100.00;101974.84;5043519;28;20044;-65
2023/11/23 08:12:24;;;;;;;41.13;18.92;;;;;;;8.26;100.00;101980.88;5049657;28;20128;-65
2023/11/23 08:14:49;;;;;;;38.25;18.73;;;;;;;8.16;100.00;101974.75;5048932;28;20029;-65
2023/11/23 08:17:14;;;;;;;41.72;18.40;;;;;;;8.17;100.00;101971.19;5046278;28;20033;-65
2023/11/23 08:19:40;;;;;;;33.85;17.83;;;;;;;8.22;100.00;101981.22;5046203;28;20048;-65
2023/11/23 08:22:08;;;;;;;41.50;19.60;;;;;;;8.23;100.00;101970.78;5045600;28;20029;-65
2023/11/23 08:24:34;;;;;;;39.63;19.50;;;;;;;8.26;100.00;101970.53;5046285;28;20040;-65
2023/11/23 08:27:00;;;;;;;40.33;18.13;;;;;;;8.31;100.00;101957.28;5044880;28;20033;-65
2023/11/23 08:29:26;;;;;;;36.22;17.85;;;;;;;8.42;100.00;101964.25;5041163;28;20041;-65
2023/11/23 08:31:52;;;;;;;31.38;17.77;;;;;;;8.45;100.00;101958.88;5041956;28;20044;-65
2023/11/23 08:34:17;;;;;;;33.92;17.88;;;;;;;8.38;100.00;101941.22;5046539;28;20040;-65
2023/11/23 08:36:43;;;;;;;36.95;18.45;;;;;;;8.33;100.00;101950.25;5044466;28;20499;-65
2023/11/23 08:39:12;;;;;;;39.63;18.15;;;;;;;8.49;100.00;101949.94;5044009;28;20064;-65
2023/11/23 08:41:38;;;;;;;38.45;19.48;;;;;;;8.57;100.00;101948.44;5043848;28;20048;-66
2023/11/23 08:44:04;;;;;;;34.15;17.52;;;;;;;8.50;100.00;101956.78;5044187;28;20090;-65
2023/11/23 08:46:30;;;;;;;36.35;18.88;;;;;;;8.49;100.00;101961.09;5051919;28;20032;-65
2023/11/23 08:48:55;;;;;;;37.03;19.27;;;;;;;8.57;100.00;101950.22;5057017;28;20021;-65
2023/11/23 08:51:22;;;;;;;43.20;18.13;;;;;;;8.64;100.00;101966.09;5057814;28;20561;-65
2023/11/23 08:53:48;;;;;;;33.30;17.75;;;;;;;8.55;100.00;101958.09;5059761;28;20075;-65
2023/11/23 08:56:14;;;;;;;38.75;20.02;;;;;;;8.61;100.00;101950.78;5053626;28;20082;-66
2023/11/23 08:58:40;;;;;;;31.92;18.38;;;;;;;8.56;100.00;101946.78;5048072;28;20037;-65
2023/11/23 09:01:05;;;;;;;40.15;20.13;;;;;;;8.61;100.00;101943.88;5043534;28;20033;-65
2023/11/23 09:03:31;;;;;;;32.33;16.52;;;;;;;8.66;100.00;101934.00;5049164;28;20048;-65
2023/11/23 09:05:58;;;;;;;37.40;16.60;;;;;;;8.68;100.00;101934.72;5046501;28;20033;-65
2023/11/23 09:08:23;;;;;;;41.08;17.60;;;;;;;8.77;100.00;101925.44;5047002;28;20048;-65
2023/11/23 09:10:49;;;;;;;33.35;17.30;;;;;;;8.73;100.00;101924.03;5045633;28;20037;-65
2023/11/23 09:13:15;;;;;;;36.15;18.63;;;;;;;8.62;100.00;101919.66;5030380;28;20040;-64
2023/11/23 09:15:41;;;;;;;30.92;16.20;;;;;;;8.88;100.00;101917.69;5042780;28;20071;-65
2023/11/23 09:18:06;;;;;;;29.20;15.52;;;;;;;8.93;100.00;101912.97;5043896;28;20086;-65
2023/11/23 09:20:32;;;;;;;29.65;15.85;;;;;;;8.96;100.00;101928.25;5044901;28;20041;-65
2023/11/23 09:23:01;;;;;;;38.97;17.23;;;;;;;9.04;100.00;101932.84;5046201;28;20377;-65
2023/11/23 09:25:29;;;;;;;32.70;16.83;;;;;;;8.90;100.00;101939.06;5043336;28;20611;-65
2023/11/23 09:27:55;;;;;;;31.23;14.93;;;;;;;9.07;100.00;101932.59;5058741;28;20214;-65
2023/11/23 09:30:21;;;;;;;31.55;15.63;;;;;;;9.07;100.00;101922.25;5042351;28;20036;-65
2023/11/23 09:32:46;;;;;;;33.78;16.65;;;;;;;9.07;100.00;101929.19;5068263;28;20069;-65
2023/11/23 09:35:12;;;;;;;29.20;16.42;;;;;;;8.92;100.00;101915.69;5043201;28;20048;-65
2023/11/23 09:37:37;;;;;;;34.90;17.02;;;;;;;8.86;100.00;101921.34;5046924;28;20039;-65
2023/11/23 09:40:09;;;;;;;32.67;15.40;;;;;;;8.91;100.00;101932.13;5042885;28;20037;-65
2023/11/23 09:42:38;;;;;;;31.33;15.48;;;;;;;8.99;100.00;101931.56;5077783;28;20418;-64
2023/11/23 09:45:10;;;;;;;30.00;15.95;;;;;;;8.88;100.00;101937.56;5055512;28;20120;-65
2023/11/23 09:47:38;;;;;;;32.37;19.10;;;;;;;8.93;100.00;101948.38;5042966;28;20040;-65
2023/11/23 09:50:05;;;;;;;29.55;15.45;;;;;;;9.04;100.00;101932.00;5042981;28;20048;-65
2023/11/23 09:52:33;;;;;;;31.98;14.85;;;;;;;9.05;100.00;101928.50;5043285;28;20094;-65
2023/11/23 09:55:02;;;;;;;26.02;13.65;;;;;;;9.11;100.00;101928.03;5035989;28;20056;-65
2023/11/23 09:57:28;;;;;;;29.48;15.57;;;;;;;8.97;100.00;101923.91;5023318;28;20033;-65
2023/11/23 09:59:53;;;;;;;25.00;14.65;;;;;;;8.94;100.00;101922.38;5022463;28;20470;-65
2023/11/23 10:02:23;;;;;;;32.25;14.68;;;;;;;8.93;100.00;101912.97;5021390;28;20037;-65
2023/11/23 10:04:49;;;;;;;30.55;14.77;;;;;;;9.02;100.00;101911.44;5020463;28;20037;-65
2023/11/23 10:07:16;;;;;;;28.92;14.13;;;;;;;9.05;100.00;101887.91;5020623;28;20400;-65
2023/11/23 10:09:43;;;;;;;28.30;13.43;;;;;;;9.01;100.00;101878.75;5023346;28;20049;-65
2023/11/23 10:12:08;;;;;;;21.67;12.75;;;;;;;9.13;100.00;101889.91;5025552;28;20032;-64
2023/11/23 10:14:34;;;;;;;22.27;12.48;;;;;;;9.14;100.00;101900.13;5023504;28;20034;-64
2023/11/23 10:16:59;;;;;;;26.42;12.30;;;;;;;9.28;100.00;101900.81;5020411;28;20368;-65
2023/11/23 10:19:25;;;;;;;26.13;12.18;;;;;;;9.16;100.00;101902.63;5020996;28;20046;-65
2023/11/23 10:21:58;;;;;;;22.05;12.07;;;;;;;9.21;100.00;101899.66;5018482;28;20038;-65
2023/11/23 10:24:24;;;;;;;24.75;11.77;;;;;;;9.22;100.00;101890.97;5021195;28;20494;-65
2023/11/23 10:26:51;;;;;;;18.85;11.52;;;;;;;9.24;100.00;101886.47;5003012;28;20036;-65
2023/11/23 10:29:18;;;;;;;27.77;13.90;;;;;;;9.30;100.00;101876.44;5021358;28;20080;-65
2023/11/23 10:31:43;;;;;;;20.67;11.50;;;;;;;9.36;100.00;101872.56;5021661;28;20044;-65
2023/11/23 10:34:10;;;;;;;26.20;12.57;;;;;;;9.20;100.00;101862.59;5024782;28;20049;-64
2023/11/23 10:36:41;;;;;;;23.02;11.77;;;;;;;9.27;100.00;101866.34;5023218;28;20050;-64
2023/11/23 10:39:11;;;;;;;30.75;11.70;;;;;;;9.26;100.00;101871.66;5022535;28;20132;-65
2023/11/23 10:41:39;;;;;;;18.88;11.70;;;;;;;9.26;100.00;101856.94;5020364;28;20080;-65
2023/11/23 10:44:06;;;;;;;23.17;10.77;;;;;;;9.27;100.00;101858.59;5020572;28;20033;-66
2023/11/23 10:46:32;;;;;;;17.25;10.02;;;;;;;9.23;100.00;101848.59;5025697;28;20041;-65
2023/11/23 10:48:58;;;;;;;22.42;9.77;;;;;;;9.29;100.00;101835.19;5009539;28;20392;-65
2023/11/23 10:51:27;;;;;;;35.38;17.13;;;;;;;9.29;100.00;101823.06;5035685;28;20068;-65
2023/11/23 10:53:52;;;;;;;30.70;14.20;;;;;;;9.33;100.00;101800.34;5048576;28;20522;-65
2023/11/23 10:56:22;;;;;;;26.63;12.57;;;;;;;9.32;100.00;101802.13;5038606;28;20057;-65
2023/11/23 10:58:52;;;;;;;37.85;15.68;;;;;;;9.45;100.00;101808.88;5039706;28;20155;-65
2023/11/23 11:01:21;;;;;;;39.88;15.25;;;;;;;9.45;100.00;101809.69;5038321;28;20037;-65
2023/11/23 11:03:48;;;;;;;31.15;13.38;;;;;;;9.48;100.00;101808.63;5040274;28;20120;-65